createdAt,value
2017-06-29T00:02:05.555Z,5.77
2017-06-29T00:04:32.499Z,5.17
2017-06-29T00:06:59.341Z,5.40
2017-06-29T00:09:26.293Z,4.20
2017-06-29T00:11:53.240Z,4.67
2017-06-29T00:14:20.108Z,5.30
2017-06-29T00:16:47.011Z,4.97
2017-06-29T00:19:13.915Z,4.03
2017-06-29T00:21:40.745Z,4.30
2017-06-29T00:24:07.590Z,4.83
2017-06-29T00:26:34.527Z,5.20
2017-06-29T00:29:01.339Z,4.77
2017-06-29T00:31:28.245Z,4.43
2017-06-29T00:33:55.948Z,4.47
2017-06-29T00:36:22.852Z,4.97
2017-06-29T00:38:50.523Z,5.23
2017-06-29T00:41:18.123Z,4.37
2017-06-29T00:43:44.952Z,5.13
2017-06-29T00:46:11.873Z,4.77
2017-06-29T00:48:39.510Z,5.50
2017-06-29T00:51:06.352Z,4.67
2017-06-29T00:53:33.324Z,5.80
2017-06-29T00:56:00.956Z,5.60
2017-06-29T00:58:27.785Z,4.87
2017-06-29T01:00:54.695Z,5.70
2017-06-29T01:03:21.544Z,5.60
2017-06-29T01:05:48.468Z,6.00
2017-06-29T01:08:15.299Z,6.50
2017-06-29T01:10:42.931Z,6.67
2017-06-29T01:13:09.770Z,6.67
2017-06-29T01:15:36.607Z,6.20
2017-06-29T01:18:03.525Z,5.87
2017-06-29T01:20:31.144Z,6.43
2017-06-29T01:22:57.974Z,5.20
2017-06-29T01:25:24.899Z,5.20
2017-06-29T01:27:51.733Z,4.80
2017-06-29T01:30:18.586Z,4.87
2017-06-29T01:32:45.506Z,6.07
2017-06-29T01:35:12.347Z,5.20
2017-06-29T01:37:39.191Z,6.33
2017-06-29T01:40:06.165Z,6.60
2017-06-29T01:42:33.018Z,5.60
2017-06-29T01:44:59.859Z,5.20
2017-06-29T01:47:26.788Z,5.43
2017-06-29T01:49:53.623Z,5.90
2017-06-29T01:52:20.471Z,5.30
2017-06-29T01:54:47.371Z,6.07
2017-06-29T01:57:14.190Z,5.90
2017-06-29T01:59:41.023Z,5.80
2017-06-29T02:02:07.938Z,5.43
2017-06-29T02:04:34.787Z,6.13
2017-06-29T02:07:01.615Z,5.00
2017-06-29T02:09:28.539Z,4.57
2017-06-29T02:11:55.373Z,4.90
2017-06-29T02:14:22.227Z,5.03
2017-06-29T02:16:49.914Z,5.53
2017-06-29T02:19:16.754Z,5.70
2017-06-29T02:21:44.377Z,5.67
2017-06-29T02:24:11.281Z,6.53
2017-06-29T02:26:38.165Z,5.37
2017-06-29T02:29:05.058Z,5.33
2017-06-29T02:31:31.876Z,4.87
2017-06-29T02:33:58.711Z,4.13
2017-06-29T02:36:25.597Z,3.17
2017-06-29T02:38:52.502Z,4.33
2017-06-29T02:41:19.330Z,3.60
2017-06-29T02:43:46.222Z,4.30
2017-06-29T02:46:13.070Z,5.00
2017-06-29T02:48:39.981Z,5.40
2017-06-29T02:51:06.859Z,7.50
2017-06-29T02:53:33.770Z,6.03
2017-06-29T02:56:01.460Z,6.13
2017-06-29T02:58:29.022Z,5.80
2017-06-29T03:00:56.614Z,6.00
2017-06-29T03:03:23.551Z,4.83
2017-06-29T03:05:50.429Z,5.23
2017-06-29T03:08:17.273Z,5.40
2017-06-29T03:10:44.163Z,4.77
2017-06-29T03:13:11.749Z,5.10
2017-06-29T03:15:38.587Z,4.53
2017-06-29T03:18:05.515Z,4.50
2017-06-29T03:20:32.338Z,3.80
2017-06-29T03:22:59.919Z,4.00
2017-06-29T03:25:26.854Z,3.97
2017-06-29T03:27:54.439Z,3.60
2017-06-29T03:30:21.282Z,5.53
2017-06-29T03:32:48.191Z,4.80
2017-06-29T03:35:15.038Z,5.40
2017-06-29T03:37:41.896Z,4.63
2017-06-29T03:40:09.592Z,4.53
2017-06-29T03:42:36.480Z,5.83
2017-06-29T03:45:03.374Z,5.80
2017-06-29T03:47:30.193Z,5.07
2017-06-29T03:49:57.846Z,5.90
2017-06-29T03:52:24.763Z,6.13
2017-06-29T03:54:51.598Z,5.97
2017-06-29T03:57:18.479Z,6.73
2017-06-29T03:59:46.039Z,6.17
2017-06-29T04:02:12.967Z,6.73
2017-06-29T04:04:39.795Z,6.47
2017-06-29T04:07:06.640Z,7.07
2017-06-29T04:09:33.546Z,7.63
2017-06-29T04:12:00.374Z,7.03
2017-06-29T04:14:27.950Z,6.53
2017-06-29T04:16:55.130Z,6.70
2017-06-29T04:19:21.970Z,6.97
2017-06-29T04:21:48.824Z,6.93
2017-06-29T04:24:15.729Z,7.17
2017-06-29T04:26:47.590Z,7.40
2017-06-29T04:29:14.482Z,8.07
2017-06-29T04:31:41.310Z,8.20
2017-06-29T04:34:08.199Z,7.30
2017-06-29T04:36:35.109Z,6.87
2017-06-29T04:39:01.923Z,7.93
2017-06-29T04:41:28.765Z,7.77
2017-06-29T04:43:55.670Z,7.70
2017-06-29T04:46:22.487Z,7.03
2017-06-29T04:48:49.327Z,6.77
2017-06-29T04:51:20.748Z,6.27
2017-06-29T04:53:48.236Z,7.03
2017-06-29T04:56:15.067Z,6.87
2017-06-29T04:58:41.962Z,6.47
2017-06-29T05:01:08.898Z,5.73
2017-06-29T05:03:36.565Z,6.30
2017-06-29T05:06:03.383Z,6.20
2017-06-29T05:08:30.278Z,6.00
2017-06-29T05:10:57.833Z,4.67
2017-06-29T05:13:25.509Z,6.00
2017-06-29T05:15:52.406Z,4.93
2017-06-29T05:18:19.231Z,5.13
2017-06-29T05:20:46.123Z,6.73
2017-06-29T05:23:13.674Z,5.87
2017-06-29T05:25:41.716Z,5.40
2017-06-29T05:28:08.540Z,6.50
2017-06-29T05:30:35.386Z,5.70
2017-06-29T05:33:02.278Z,4.50
2017-06-29T05:35:29.859Z,4.93
2017-06-29T05:37:56.779Z,5.23
2017-06-29T05:40:24.422Z,8.23
2017-06-29T05:42:51.319Z,5.50
2017-06-29T05:45:18.223Z,4.60
2017-06-29T05:47:45.053Z,5.00
2017-06-29T05:50:11.965Z,3.60
2017-06-29T05:52:38.790Z,3.63
2017-06-29T05:55:06.442Z,2.87
2017-06-29T05:57:33.275Z,2.63
2017-06-29T06:00:01.284Z,3.43
2017-06-29T06:02:32.011Z,4.63
2017-06-29T06:04:59.087Z,5.30
2017-06-29T06:07:25.900Z,6.77
2017-06-29T06:09:53.559Z,4.40
2017-06-29T06:12:21.200Z,4.97
2017-06-29T06:14:48.131Z,4.60
2017-06-29T06:17:14.967Z,4.00
2017-06-29T06:19:41.807Z,3.83
2017-06-29T06:22:08.723Z,3.97
2017-06-29T06:24:35.531Z,4.67
2017-06-29T06:27:03.124Z,4.03
2017-06-29T06:29:30.025Z,4.30
2017-06-29T06:31:56.855Z,5.30
2017-06-29T06:34:23.674Z,5.00
2017-06-29T06:36:50.559Z,5.00
2017-06-29T06:39:17.463Z,5.30
2017-06-29T06:41:44.600Z,5.40
2017-06-29T06:44:11.439Z,5.70
2017-06-29T06:46:38.331Z,5.10
2017-06-29T06:49:05.151Z,5.87
2017-06-29T06:51:32.043Z,5.13
2017-06-29T06:53:58.883Z,5.57
2017-06-29T06:56:25.870Z,5.27
2017-06-29T06:58:52.707Z,5.67
2017-06-29T07:01:19.518Z,5.40
2017-06-29T07:03:46.420Z,5.53
2017-06-29T07:06:13.231Z,5.73
2017-06-29T07:08:40.071Z,6.70
2017-06-29T07:11:06.989Z,6.60
2017-06-29T07:13:33.893Z,4.70
2017-06-29T07:16:04.124Z,5.70
2017-06-29T07:18:30.965Z,5.77
2017-06-29T07:20:57.949Z,5.60
2017-06-29T07:23:24.795Z,7.10
2017-06-29T07:25:51.631Z,6.70
2017-06-29T07:28:18.533Z,6.60
2017-06-29T07:30:45.382Z,8.07
2017-06-29T07:33:12.318Z,7.77
2017-06-29T07:35:39.144Z,6.73
2017-06-29T07:38:05.961Z,7.17
2017-06-29T07:40:32.888Z,7.27
2017-06-29T07:42:59.711Z,6.83
2017-06-29T07:45:26.548Z,7.03
2017-06-29T07:47:53.536Z,7.20
2017-06-29T07:50:20.366Z,8.10
2017-06-29T07:52:47.207Z,7.73
2017-06-29T07:55:14.142Z,8.10
2017-06-29T07:57:40.960Z,8.63
2017-06-29T08:00:07.931Z,7.60
2017-06-29T08:02:34.841Z,9.23
2017-06-29T08:05:01.787Z,8.00
2017-06-29T08:07:28.748Z,8.00
2017-06-29T08:09:55.574Z,7.90
2017-06-29T08:12:22.492Z,7.90
2017-06-29T08:14:50.075Z,7.90
2017-06-29T08:17:17.727Z,8.27
2017-06-29T08:19:44.534Z,9.37
2017-06-29T08:22:11.430Z,8.03
2017-06-29T08:24:38.452Z,8.70
2017-06-29T08:27:05.280Z,8.93
2017-06-29T08:29:32.226Z,9.13
2017-06-29T08:31:59.086Z,8.70
2017-06-29T08:34:25.901Z,8.30
2017-06-29T08:36:52.811Z,9.00
2017-06-29T08:39:19.682Z,8.70
2017-06-29T08:41:46.862Z,8.07
2017-06-29T08:44:13.686Z,9.03
2017-06-29T08:46:40.523Z,7.93
2017-06-29T08:49:07.418Z,7.43
2017-06-29T08:51:34.267Z,8.17
2017-06-29T08:54:02.174Z,8.40
2017-06-29T08:56:29.066Z,7.50
2017-06-29T08:58:55.963Z,8.70
2017-06-29T09:01:23.120Z,7.70
2017-06-29T09:03:50.095Z,7.87
2017-06-29T09:06:16.922Z,8.03
2017-06-29T09:08:43.891Z,8.60
2017-06-29T09:11:10.831Z,8.40
2017-06-29T09:13:37.787Z,8.87
2017-06-29T09:16:05.370Z,8.67
2017-06-29T09:18:32.931Z,8.40
2017-06-29T09:20:59.823Z,8.17
2017-06-29T09:23:26.638Z,8.53
2017-06-29T09:25:53.546Z,8.77
2017-06-29T09:28:20.407Z,9.00
2017-06-29T09:30:48.844Z,8.73
2017-06-29T09:33:15.707Z,10.13
2017-06-29T09:35:42.596Z,9.87
2017-06-29T09:38:09.592Z,9.77
2017-06-29T09:40:36.447Z,8.80
2017-06-29T09:43:03.358Z,8.97
2017-06-29T09:45:30.254Z,9.00
2017-06-29T09:47:57.868Z,8.50
2017-06-29T09:50:34.343Z,7.30
2017-06-29T09:53:01.946Z,7.90
2017-06-29T09:55:51.191Z,8.40
2017-06-29T09:58:18.967Z,7.00
2017-06-29T10:00:48.676Z,6.30
2017-06-29T10:03:16.412Z,6.43
2017-06-29T10:05:43.242Z,7.53
2017-06-29T10:08:10.138Z,7.80
2017-06-29T10:10:37.784Z,7.20
2017-06-29T10:13:04.612Z,6.17
2017-06-29T10:15:31.559Z,5.97
2017-06-29T10:17:58.383Z,5.67
2017-06-29T10:20:25.226Z,6.10
2017-06-29T10:22:52.148Z,5.60
2017-06-29T10:25:19.042Z,6.37
2017-06-29T10:27:45.979Z,6.63
2017-06-29T10:30:12.861Z,5.33
2017-06-29T10:32:41.485Z,5.80
2017-06-29T10:35:09.175Z,5.60
2017-06-29T10:37:36.092Z,5.73
2017-06-29T10:40:02.927Z,5.60
2017-06-29T10:42:29.875Z,6.53
2017-06-29T10:44:57.289Z,5.30
2017-06-29T10:47:24.775Z,5.50
2017-06-29T10:49:52.340Z,5.23
2017-06-29T10:52:19.176Z,5.83
2017-06-29T10:54:46.811Z,5.83
2017-06-29T10:57:13.753Z,5.77
2017-06-29T10:59:40.912Z,5.40
2017-06-29T11:02:08.019Z,5.57
2017-06-29T11:04:37.201Z,4.63
2017-06-29T11:07:04.222Z,5.43
2017-06-29T11:09:33.597Z,5.20
2017-06-29T11:12:00.574Z,6.13
2017-06-29T11:14:28.313Z,6.13
2017-06-29T11:16:55.223Z,5.30
2017-06-29T11:19:23.670Z,4.80
2017-06-29T11:21:52.694Z,4.80
2017-06-29T11:24:20.299Z,5.90
2017-06-29T11:26:47.344Z,5.57
2017-06-29T11:29:14.174Z,5.40
2017-06-29T11:31:41.072Z,4.80
2017-06-29T11:34:21.657Z,5.37
2017-06-29T11:36:59.656Z,5.97
2017-06-29T11:39:32.794Z,5.10
2017-06-29T11:42:14.521Z,5.17
2017-06-29T11:44:41.948Z,5.23
2017-06-29T11:47:08.867Z,4.73
2017-06-29T11:49:35.695Z,5.07
2017-06-29T11:52:02.527Z,5.20
2017-06-29T11:54:29.449Z,4.47
2017-06-29T11:56:57.040Z,3.80
2017-06-29T11:59:23.937Z,4.20
2017-06-29T12:01:50.927Z,4.70
2017-06-29T12:04:17.771Z,4.43
2017-06-29T12:06:44.715Z,5.60
2017-06-29T12:09:11.634Z,4.20
2017-06-29T12:11:38.475Z,4.40
2017-06-29T12:14:05.391Z,4.60
2017-06-29T12:16:40.717Z,4.23
2017-06-29T12:19:22.887Z,3.93
2017-06-29T12:24:40.814Z,3.80
2017-06-29T12:27:13.859Z,4.57
2017-06-29T12:29:49.068Z,4.13
2017-06-29T12:32:23.997Z,4.23
2017-06-29T12:34:55.569Z,4.47
2017-06-29T12:37:34.201Z,4.07
2017-06-29T12:40:16.288Z,4.40
2017-06-29T12:43:02.782Z,4.63
2017-06-29T12:45:39.659Z,4.07
2017-06-29T12:48:07.228Z,3.90
2017-06-29T12:50:34.050Z,3.70
2017-06-29T12:53:00.949Z,3.20
2017-06-29T12:55:28.386Z,3.57
2017-06-29T12:57:55.215Z,3.70
2017-06-29T13:00:22.944Z,3.50
2017-06-29T13:02:49.916Z,3.53
2017-06-29T13:05:17.613Z,3.47
2017-06-29T13:07:44.624Z,3.63
2017-06-29T13:10:12.273Z,2.93
2017-06-29T13:12:39.167Z,3.00
2017-06-29T13:15:06.019Z,3.47
2017-06-29T13:17:37.262Z,3.50
2017-06-29T13:20:04.964Z,3.20
2017-06-29T13:22:31.996Z,3.10
2017-06-29T13:24:58.997Z,3.33
2017-06-29T13:27:26.566Z,2.27
2017-06-29T13:29:54.632Z,2.93
2017-06-29T13:32:27.778Z,2.33
2017-06-29T13:34:55.600Z,2.73
2017-06-29T13:37:22.438Z,2.57
2017-06-29T13:39:49.361Z,2.97
2017-06-29T13:42:16.217Z,2.40
2017-06-29T13:44:43.884Z,2.40
2017-06-29T13:47:11.491Z,2.20
2017-06-29T13:49:38.394Z,2.50
2017-06-29T13:52:05.161Z,2.30
2017-06-29T13:54:32.065Z,2.10
2017-06-29T13:56:59.723Z,2.00
2017-06-29T13:59:27.459Z,1.93
2017-06-29T14:01:54.395Z,2.30
2017-06-29T14:04:21.321Z,2.20
2017-06-29T14:06:48.144Z,2.03
2017-06-29T14:09:15.779Z,2.10
2017-06-29T14:11:42.691Z,2.00
2017-06-29T14:14:09.526Z,2.23
2017-06-29T14:16:36.419Z,2.60
2017-06-29T14:19:03.392Z,2.07
2017-06-29T14:21:30.244Z,1.93
2017-06-29T14:23:57.171Z,2.20
2017-06-29T14:26:25.012Z,1.73
2017-06-29T14:28:51.848Z,1.70
2017-06-29T14:31:18.775Z,1.90
2017-06-29T14:33:45.626Z,1.97
2017-06-29T14:36:12.476Z,2.10
2017-06-29T14:38:39.422Z,2.57
2017-06-29T14:41:06.266Z,2.00
2017-06-29T14:43:33.106Z,1.77
2017-06-29T14:46:00.030Z,1.93
2017-06-29T14:48:26.894Z,2.17
2017-06-29T14:50:53.747Z,1.80
2017-06-29T14:53:20.719Z,2.00
2017-06-29T14:55:47.605Z,1.70
2017-06-29T14:58:14.435Z,1.67
2017-06-29T15:00:41.335Z,1.90
2017-06-29T15:03:08.163Z,1.60
2017-06-29T15:05:35.035Z,1.30
2017-06-29T15:08:01.941Z,1.30
2017-06-29T15:10:28.924Z,1.00
2017-06-29T15:12:55.751Z,1.40
2017-06-29T15:15:22.745Z,1.57
2017-06-29T15:17:49.579Z,1.27
2017-06-29T15:20:17.359Z,1.10
2017-06-29T15:22:44.290Z,1.50
2017-06-29T15:25:11.939Z,1.43
2017-06-29T15:27:38.989Z,1.20
2017-06-29T15:30:05.859Z,1.80
2017-06-29T15:32:32.703Z,1.87
2017-06-29T15:34:59.685Z,1.50
2017-06-29T15:37:26.540Z,1.57
2017-06-29T15:39:53.435Z,1.47
2017-06-29T15:42:20.346Z,1.60
2017-06-29T15:44:47.171Z,1.67
2017-06-29T15:47:14.035Z,1.20
2017-06-29T15:49:40.988Z,1.50
2017-06-29T15:52:07.831Z,1.37
2017-06-29T15:54:34.711Z,1.90
2017-06-29T15:57:01.626Z,1.70
2017-06-29T15:59:29.309Z,2.80
2017-06-29T16:01:56.976Z,1.50
2017-06-29T16:04:23.819Z,2.17
2017-06-29T16:06:53.308Z,1.20
2017-06-29T16:09:20.946Z,2.77
2017-06-29T16:11:47.764Z,2.90
2017-06-29T16:14:14.688Z,2.27
2017-06-29T16:16:41.521Z,2.47
2017-06-29T16:19:08.369Z,1.93
2017-06-29T16:21:38.181Z,2.20
2017-06-29T16:24:05.097Z,2.13
2017-06-29T16:26:32.005Z,2.00
2017-06-29T16:28:58.896Z,2.40
2017-06-29T16:31:25.860Z,3.00
2017-06-29T16:33:53.456Z,2.50
2017-06-29T16:36:20.310Z,2.10
2017-06-29T16:38:47.251Z,2.50
2017-06-29T16:41:14.178Z,2.20
2017-06-29T16:43:41.015Z,2.57
2017-06-29T16:46:07.842Z,2.40
2017-06-29T16:48:34.781Z,2.80
2017-06-29T16:51:02.391Z,2.87
2017-06-29T16:53:29.319Z,2.60
2017-06-29T16:55:56.227Z,2.20
2017-06-29T16:58:23.915Z,2.90
2017-06-29T17:00:50.845Z,2.23
2017-06-29T17:03:17.832Z,2.90
2017-06-29T17:05:44.690Z,2.43
2017-06-29T17:08:11.640Z,2.73
2017-06-29T17:10:38.545Z,2.50
2017-06-29T17:13:05.379Z,2.50
2017-06-29T17:15:32.310Z,2.70
2017-06-29T17:17:59.150Z,2.50
2017-06-29T17:20:26.072Z,3.23
2017-06-29T17:22:52.923Z,2.80
2017-06-29T17:25:19.754Z,3.53
2017-06-29T17:27:46.670Z,3.87
2017-06-29T17:30:13.595Z,3.10
2017-06-29T17:32:40.451Z,2.23
2017-06-29T17:35:07.294Z,3.20
2017-06-29T17:37:34.204Z,3.00
2017-06-29T17:40:01.111Z,2.90
2017-06-29T17:42:27.934Z,2.80
2017-06-29T17:44:54.834Z,2.93
2017-06-29T17:47:21.685Z,4.20
2017-06-29T17:49:48.587Z,2.90
2017-06-29T17:52:15.495Z,3.33
2017-06-29T17:54:42.367Z,3.37
2017-06-29T17:57:09.933Z,3.20
2017-06-29T17:59:37.141Z,2.40
2017-06-29T18:02:04.780Z,2.70
2017-06-29T18:04:31.606Z,2.90
2017-06-29T18:06:58.525Z,2.30
2017-06-29T18:09:25.399Z,2.53
2017-06-29T18:11:52.335Z,3.13
2017-06-29T18:14:19.272Z,2.57
2017-06-29T18:16:46.129Z,2.40
2017-06-29T18:19:16.079Z,3.00
2017-06-29T18:21:43.517Z,3.17
2017-06-29T18:24:11.303Z,2.80
2017-06-29T18:26:38.150Z,2.70
2017-06-29T18:29:05.906Z,2.80
2017-06-29T18:31:36.195Z,3.20
2017-06-29T18:34:04.496Z,2.80
2017-06-29T18:36:32.103Z,3.07
2017-06-29T18:39:01.831Z,2.90
2017-06-29T18:41:28.814Z,2.80
2017-06-29T18:43:55.670Z,2.90
2017-06-29T18:46:25.441Z,2.30
2017-06-29T18:48:55.686Z,2.83
2017-06-29T18:51:22.803Z,2.20
2017-06-29T18:53:52.411Z,2.80
2017-06-29T18:56:20.799Z,2.60
2017-06-29T18:58:49.129Z,3.00
2017-06-29T19:01:16.342Z,2.27
2017-06-29T19:03:43.278Z,2.80
2017-06-29T19:06:10.212Z,2.70
2017-06-29T19:08:39.778Z,2.80
2017-06-29T19:11:10.553Z,2.83
2017-06-29T19:13:38.486Z,2.80
2017-06-29T19:16:06.640Z,2.90
2017-06-29T19:18:38.157Z,2.67
2017-06-29T19:21:05.183Z,2.50
2017-06-29T19:23:32.157Z,3.20
2017-06-29T19:26:00.528Z,2.77
2017-06-29T19:28:28.532Z,2.07
2017-06-29T19:30:55.480Z,2.10
2017-06-29T19:33:22.396Z,1.97
2017-06-29T19:35:50.793Z,1.97
2017-06-29T19:38:17.851Z,1.90
2017-06-29T19:40:44.761Z,1.50
2017-06-29T19:43:15.012Z,1.63
2017-06-29T19:45:42.093Z,1.77
2017-06-29T19:48:11.066Z,1.93
2017-06-29T19:50:39.075Z,1.53
2017-06-29T19:53:06.038Z,1.63
2017-06-29T19:55:34.561Z,1.60
2017-06-29T19:58:01.562Z,2.07
2017-06-29T20:00:29.816Z,1.40
2017-06-29T20:02:59.048Z,1.20
2017-06-29T20:05:26.232Z,1.30
2017-06-29T20:07:53.073Z,1.20
2017-06-29T20:10:20.118Z,1.10
2017-06-29T20:12:46.960Z,0.97
2017-06-29T20:15:15.458Z,1.03
2017-06-29T20:17:42.398Z,1.00
2017-06-29T20:20:11.191Z,1.10
2017-06-29T20:22:38.939Z,1.10
2017-06-29T20:25:05.867Z,1.20
2017-06-29T20:27:32.788Z,1.13
2017-06-29T20:29:59.833Z,1.20
2017-06-29T20:32:27.542Z,1.20
2017-06-29T20:34:54.670Z,1.30
2017-06-29T20:37:22.325Z,1.20
2017-06-29T20:39:50.715Z,1.30
2017-06-29T20:42:22.173Z,1.07
2017-06-29T20:44:50.468Z,3.03
2017-06-29T20:47:18.920Z,1.20
2017-06-29T20:49:45.930Z,1.23
2017-06-29T20:52:12.784Z,1.37
2017-06-29T20:54:39.699Z,1.20
2017-06-29T20:57:06.534Z,1.50
2017-06-29T20:59:33.394Z,1.43
2017-06-29T21:02:00.349Z,1.20
2017-06-29T21:04:27.178Z,1.40
2017-06-29T21:06:55.040Z,1.17
2017-06-29T21:09:22.314Z,1.37
2017-06-29T21:11:50.158Z,1.40
2017-06-29T21:14:18.137Z,1.83
2017-06-29T21:16:46.539Z,1.70
2017-06-29T21:19:13.455Z,1.50
2017-06-29T21:21:40.773Z,1.60
2017-06-29T21:24:08.762Z,1.40
2017-06-29T21:26:38.722Z,1.40
2017-06-29T21:29:05.557Z,1.43
2017-06-29T21:31:33.027Z,1.70
2017-06-29T21:36:41.136Z,1.80
2017-06-29T21:39:10.097Z,1.90
2017-06-29T21:41:42.302Z,1.53
2017-06-29T21:44:10.431Z,1.60
2017-06-29T21:46:37.335Z,1.70
2017-06-29T21:49:07.579Z,1.90
2017-06-29T21:51:44.347Z,1.70
2017-06-29T21:54:21.064Z,2.07
2017-06-29T21:56:48.746Z,1.73
2017-06-29T21:59:15.603Z,1.87
2017-06-29T22:01:46.647Z,1.60
2017-06-29T22:04:13.562Z,2.00
2017-06-29T22:06:40.479Z,1.80
2017-06-29T22:09:07.306Z,1.77
2017-06-29T22:11:34.162Z,1.40
2017-06-29T22:14:01.807Z,1.47
2017-06-29T22:16:29.462Z,1.50
2017-06-29T22:19:00.806Z,1.20
2017-06-29T22:21:32.539Z,1.90
2017-06-29T22:24:01.369Z,2.50
2017-06-29T22:26:33.274Z,1.60
2017-06-29T22:29:04.628Z,1.80
2017-06-29T22:31:34.037Z,1.40
2017-06-29T22:34:02.805Z,1.23
2017-06-29T22:36:31.087Z,1.40
2017-06-29T22:39:05.000Z,1.80
2017-06-29T22:41:32.528Z,1.37
2017-06-29T22:43:59.819Z,1.57
2017-06-29T22:46:27.120Z,1.40
2017-06-29T22:48:53.960Z,1.60
2017-06-29T22:51:29.814Z,1.60
2017-06-29T22:53:56.771Z,1.57
2017-06-29T22:56:30.142Z,1.40
2017-06-29T22:58:56.983Z,1.30
2017-06-29T23:01:24.483Z,1.37
2017-06-29T23:03:51.797Z,1.33
2017-06-29T23:06:27.492Z,1.40
2017-06-29T23:08:56.279Z,1.77
2017-06-29T23:11:23.188Z,1.57
2017-06-29T23:13:50.007Z,1.40
2017-06-29T23:16:16.901Z,1.30
2017-06-29T23:18:43.822Z,1.83
2017-06-29T23:21:10.763Z,2.00
2017-06-29T23:23:37.600Z,1.67
2017-06-29T23:26:04.468Z,2.83
2017-06-29T23:28:31.373Z,1.40
2017-06-29T23:30:58.241Z,1.80
2017-06-29T23:33:25.139Z,2.20
2017-06-29T23:35:52.723Z,1.70
2017-06-29T23:38:19.631Z,1.37
2017-06-29T23:40:46.471Z,1.70
2017-06-29T23:43:13.322Z,1.53
2017-06-29T23:45:40.230Z,1.53
2017-06-29T23:48:07.050Z,1.70
2017-06-29T23:50:33.943Z,1.60
2017-06-29T23:53:00.778Z,1.37
2017-06-29T23:55:27.687Z,1.57
2017-06-29T23:57:54.520Z,1.50
